createdAt,value
2022-09-20T00:00:45.191Z,40.73
2022-09-20T00:03:12.004Z,40.63
2022-09-20T00:05:38.789Z,40.52
2022-09-20T00:08:05.544Z,40.26
2022-09-20T00:10:34.506Z,40.27
2022-09-20T00:13:01.266Z,43.33
2022-09-20T00:15:28.040Z,43.00
2022-09-20T00:17:54.845Z,48.81
2022-09-20T00:20:21.685Z,47.56
2022-09-20T00:22:49.549Z,44.89
2022-09-20T00:25:16.377Z,43.73
2022-09-20T00:27:43.161Z,42.41
2022-09-20T00:30:09.905Z,42.15
2022-09-20T00:32:36.673Z,41.86
2022-09-20T00:35:10.838Z,41.73
2022-09-20T00:37:37.628Z,41.34
2022-09-20T00:40:04.544Z,40.78
2022-09-20T00:42:31.321Z,41.07
2022-09-20T00:44:58.113Z,40.61
2022-09-20T00:47:24.890Z,40.49
2022-09-20T00:49:51.643Z,40.48
2022-09-20T00:52:18.557Z,40.34
2022-09-20T00:54:45.302Z,43.47
2022-09-20T00:57:12.133Z,43.19
2022-09-20T00:59:38.881Z,46.71
2022-09-20T01:02:05.866Z,47.62
2022-09-20T01:04:32.744Z,44.77
2022-09-20T01:06:59.505Z,43.47
2022-09-20T01:09:26.279Z,42.96
2022-09-20T01:11:53.068Z,42.09
2022-09-20T01:14:22.089Z,41.63
2022-09-20T01:16:48.889Z,41.38
2022-09-20T01:19:15.748Z,41.34
2022-09-20T01:21:42.529Z,40.92
2022-09-20T01:24:09.273Z,40.95
2022-09-20T01:26:36.012Z,40.92
2022-09-20T01:29:02.777Z,40.78
2022-09-20T01:31:29.587Z,40.87
2022-09-20T01:33:56.368Z,40.47
2022-09-20T01:36:23.248Z,43.08
2022-09-20T01:38:50.133Z,43.14
2022-09-20T01:41:16.998Z,46.54
2022-09-20T01:43:43.768Z,48.08
2022-09-20T01:46:10.560Z,45.04
2022-09-20T01:48:37.491Z,43.63
2022-09-20T01:51:04.266Z,42.35
2022-09-20T01:53:31.064Z,42.46
2022-09-20T01:55:57.816Z,41.73
2022-09-20T01:58:24.577Z,41.32
2022-09-20T02:00:51.363Z,41.07
2022-09-20T02:03:18.121Z,41.00
2022-09-20T02:05:44.928Z,40.85
2022-09-20T02:08:11.684Z,40.82
2022-09-20T02:10:38.494Z,40.82
2022-09-20T02:13:05.253Z,40.65
2022-09-20T02:15:31.989Z,40.30
2022-09-20T02:17:58.727Z,43.12
2022-09-20T02:20:25.506Z,43.78
2022-09-20T02:22:52.305Z,46.71
2022-09-20T02:25:19.151Z,48.56
2022-09-20T02:27:46.010Z,44.80
2022-09-20T02:30:12.755Z,43.65
2022-09-20T02:32:39.866Z,42.48
2022-09-20T02:35:07.018Z,42.09
2022-09-20T02:37:33.885Z,41.59
2022-09-20T02:40:00.659Z,41.63
2022-09-20T02:42:27.448Z,41.46
2022-09-20T02:44:54.652Z,41.25
2022-09-20T02:47:21.453Z,41.29
2022-09-20T02:49:48.229Z,40.66
2022-09-20T02:52:14.961Z,40.41
2022-09-20T02:54:41.707Z,40.46
2022-09-20T02:57:08.469Z,40.54
2022-09-20T02:59:35.218Z,40.12
2022-09-20T03:02:02.003Z,43.72
2022-09-20T03:04:28.818Z,43.03
2022-09-20T03:06:55.562Z,48.44
2022-09-20T03:09:22.305Z,47.29
2022-09-20T03:11:49.232Z,44.19
2022-09-20T03:14:16.036Z,43.03
2022-09-20T03:16:42.826Z,42.44
2022-09-20T03:19:09.681Z,41.96
2022-09-20T03:21:36.434Z,41.90
2022-09-20T03:24:03.218Z,41.46
2022-09-20T03:26:29.982Z,40.83
2022-09-20T03:28:56.725Z,40.84
2022-09-20T03:31:23.551Z,40.55
2022-09-20T03:33:50.375Z,40.47
2022-09-20T03:36:17.156Z,40.38
2022-09-20T03:38:43.901Z,40.38
2022-09-20T03:41:10.795Z,40.43
2022-09-20T03:43:37.545Z,41.09
2022-09-20T03:46:04.421Z,43.47
2022-09-20T03:48:31.254Z,43.01
2022-09-20T03:50:58.054Z,48.92
2022-09-20T03:53:24.892Z,45.77
2022-09-20T03:55:52.024Z,43.97
2022-09-20T03:58:18.773Z,42.81
2022-09-20T04:00:45.665Z,42.19
2022-09-20T04:03:12.456Z,42.10
2022-09-20T04:05:39.204Z,41.64
2022-09-20T04:08:06.422Z,40.72
2022-09-20T04:10:33.188Z,41.21
2022-09-20T04:13:00.491Z,41.06
2022-09-20T04:15:27.237Z,40.53
2022-09-20T04:17:54.164Z,40.37
2022-09-20T04:20:21.248Z,40.47
2022-09-20T04:22:48.100Z,40.58
2022-09-20T04:25:14.976Z,40.81
2022-09-20T04:27:41.781Z,44.21
2022-09-20T04:30:08.555Z,42.71
2022-09-20T04:32:35.302Z,46.74
2022-09-20T04:35:20.625Z,47.00
2022-09-20T04:37:47.390Z,44.16
2022-09-20T04:40:14.971Z,43.31
2022-09-20T04:42:42.795Z,41.88
2022-09-20T04:45:09.642Z,41.76
2022-09-20T04:47:36.594Z,41.63
2022-09-20T04:50:03.397Z,41.44
2022-09-20T04:52:30.165Z,41.06
2022-09-20T04:54:56.904Z,40.79
2022-09-20T04:57:23.648Z,41.01
2022-09-20T04:59:52.382Z,40.36
2022-09-20T05:02:19.189Z,40.18
2022-09-20T05:04:46.027Z,40.15
2022-09-20T05:07:12.789Z,42.95
2022-09-20T05:09:40.351Z,43.55
2022-09-20T05:12:07.804Z,45.65
2022-09-20T05:14:34.721Z,47.43
2022-09-20T05:17:01.799Z,44.84
2022-09-20T05:19:28.574Z,43.44
2022-09-20T05:21:55.320Z,42.53
2022-09-20T05:24:22.063Z,41.78
2022-09-20T05:26:48.920Z,41.78
2022-09-20T05:29:15.729Z,41.49
2022-09-20T05:31:42.541Z,41.36
2022-09-20T05:34:09.327Z,41.01
2022-09-20T05:36:36.085Z,40.51
2022-09-20T05:39:03.645Z,40.18
2022-09-20T05:41:31.862Z,40.70
2022-09-20T05:43:58.663Z,40.40
2022-09-20T05:46:25.405Z,41.60
2022-09-20T05:48:52.154Z,43.77
2022-09-20T05:51:18.925Z,42.99
2022-09-20T05:53:45.673Z,46.37
2022-09-20T05:56:12.421Z,45.55
2022-09-20T05:58:39.594Z,43.66
2022-09-20T06:01:06.812Z,42.49
2022-09-20T06:03:33.573Z,42.20
2022-09-20T06:06:00.999Z,41.45
2022-09-20T06:08:27.740Z,41.21
2022-09-20T06:10:54.480Z,40.91
2022-09-20T06:13:21.243Z,40.78
2022-09-20T06:15:48.000Z,40.63
2022-09-20T06:18:14.972Z,40.11
2022-09-20T06:20:41.736Z,40.14
2022-09-20T06:23:08.488Z,40.50
2022-09-20T06:25:35.348Z,43.89
2022-09-20T06:28:02.111Z,43.57
2022-09-20T06:30:28.952Z,46.38
2022-09-20T06:32:55.887Z,46.38
2022-09-20T06:35:22.664Z,44.10
2022-09-20T06:38:08.145Z,42.93
2022-09-20T06:40:53.507Z,42.01
2022-09-20T06:43:20.271Z,41.63
2022-09-20T06:45:47.919Z,41.01
2022-09-20T06:48:15.550Z,41.30
2022-09-20T06:50:45.185Z,41.12
2022-09-20T06:53:12.165Z,40.41
2022-09-20T06:55:40.840Z,40.76
2022-09-20T06:58:09.657Z,40.25
2022-09-20T07:00:36.807Z,40.58
2022-09-20T07:03:03.933Z,43.59
2022-09-20T07:05:30.695Z,43.64
2022-09-20T07:07:57.436Z,45.25
2022-09-20T07:10:24.575Z,46.40
2022-09-20T07:12:51.343Z,44.41
2022-09-20T07:15:18.181Z,43.15
2022-09-20T07:17:45.029Z,42.42
2022-09-20T07:20:11.787Z,41.56
2022-09-20T07:22:38.590Z,41.08
2022-09-20T07:25:05.357Z,41.02
2022-09-20T07:27:32.105Z,40.52
2022-09-20T07:29:58.848Z,40.89
2022-09-20T07:32:26.970Z,40.74
2022-09-20T07:34:53.727Z,40.50
2022-09-20T07:37:20.493Z,40.29
2022-09-20T07:39:47.262Z,41.63
2022-09-20T07:42:14.008Z,44.11
2022-09-20T07:44:43.845Z,43.22
2022-09-20T07:47:11.199Z,46.61
2022-09-20T07:49:37.971Z,45.29
2022-09-20T07:52:04.775Z,43.35
2022-09-20T07:54:31.550Z,42.57
2022-09-20T07:56:58.356Z,41.85
2022-09-20T07:59:25.903Z,41.74
2022-09-20T08:01:52.706Z,41.32
2022-09-20T08:04:19.498Z,41.10
2022-09-20T08:06:46.361Z,40.65
2022-09-20T08:09:13.305Z,40.95
2022-09-20T08:11:40.433Z,40.68
2022-09-20T08:14:08.809Z,40.65
2022-09-20T08:16:36.113Z,43.65
2022-09-20T08:19:02.965Z,44.10
2022-09-20T08:21:31.379Z,45.74
2022-09-20T08:23:58.157Z,46.40
2022-09-20T08:26:25.005Z,44.46
2022-09-20T08:28:52.195Z,42.61
2022-09-20T08:31:19.367Z,42.08
2022-09-20T08:33:46.165Z,41.58
2022-09-20T08:36:13.025Z,41.57
2022-09-20T08:41:26.537Z,40.79
2022-09-20T08:43:53.307Z,41.11
2022-09-20T08:46:23.250Z,40.80
2022-09-20T08:48:50.387Z,40.75
2022-09-20T08:51:22.622Z,40.51
2022-09-20T08:53:49.993Z,44.52
2022-09-20T08:56:16.780Z,43.44
2022-09-20T08:58:43.722Z,46.03
2022-09-20T09:01:10.482Z,46.08
2022-09-20T09:03:37.273Z,43.73
2022-09-20T09:06:07.522Z,42.54
2022-09-20T09:08:38.223Z,42.12
2022-09-20T09:11:09.297Z,41.75
2022-09-20T09:13:36.051Z,41.55
2022-09-20T09:16:03.354Z,41.31
2022-09-20T09:18:31.603Z,40.86
2022-09-20T09:20:59.192Z,41.06
2022-09-20T09:23:26.006Z,40.55
2022-09-20T09:25:52.824Z,40.60
2022-09-20T09:28:19.579Z,40.65
2022-09-20T09:30:49.772Z,44.26
2022-09-20T09:33:16.541Z,43.39
2022-09-20T09:35:43.282Z,46.87
2022-09-20T09:38:10.061Z,46.05
2022-09-20T09:40:36.929Z,44.13
2022-09-20T09:43:04.021Z,42.58
2022-09-20T09:45:30.853Z,41.69
2022-09-20T09:47:57.858Z,41.77
2022-09-20T09:50:24.638Z,41.51
2022-09-20T09:52:51.388Z,40.92
2022-09-20T09:55:18.392Z,40.81
2022-09-20T09:57:45.581Z,40.63
2022-09-20T10:00:19.196Z,40.28
2022-09-20T10:02:47.996Z,40.54
2022-09-20T10:05:14.777Z,40.95
2022-09-20T10:07:41.521Z,44.06
2022-09-20T10:10:08.302Z,43.62
2022-09-20T10:12:35.105Z,46.63
2022-09-20T10:15:01.899Z,46.20
2022-09-20T10:17:28.672Z,43.97
2022-09-20T10:19:55.491Z,42.65
2022-09-20T10:22:23.125Z,41.89
2022-09-20T10:24:51.664Z,41.72
2022-09-20T10:27:19.482Z,41.33
2022-09-20T10:29:46.826Z,41.23
2022-09-20T10:32:15.416Z,41.07
2022-09-20T10:34:42.325Z,40.94
2022-09-20T10:37:10.437Z,40.95
2022-09-20T10:39:37.207Z,40.78
2022-09-20T10:42:22.736Z,40.70
2022-09-20T10:44:49.548Z,46.70
2022-09-20T10:47:19.915Z,48.33
2022-09-20T10:49:50.732Z,44.78
2022-09-20T10:52:18.101Z,42.80
2022-09-20T10:54:44.901Z,41.54
2022-09-20T10:57:11.677Z,41.67
2022-09-20T10:59:38.514Z,41.48
2022-09-20T11:02:05.366Z,41.10
2022-09-20T11:04:32.481Z,41.09
2022-09-20T11:06:59.240Z,40.74
2022-09-20T11:09:26.012Z,40.86
2022-09-20T11:11:52.866Z,41.45
2022-09-20T11:14:19.702Z,46.66
2022-09-20T11:16:46.739Z,48.55
2022-09-20T11:19:13.573Z,45.36
2022-09-20T11:21:40.368Z,43.18
2022-09-20T11:24:07.128Z,42.29
2022-09-20T11:26:33.906Z,41.69
2022-09-20T11:29:00.748Z,41.37
2022-09-20T11:31:27.723Z,41.22
2022-09-20T11:33:55.684Z,41.17
2022-09-20T11:36:22.479Z,41.18
2022-09-20T11:38:53.094Z,40.82
2022-09-20T11:41:20.305Z,40.77
2022-09-20T11:43:47.837Z,46.22
2022-09-20T11:46:14.664Z,48.21
2022-09-20T11:48:41.488Z,45.20
2022-09-20T11:51:08.688Z,42.89
2022-09-20T11:53:36.918Z,41.86
2022-09-20T11:56:05.188Z,41.47
2022-09-20T11:58:34.322Z,40.73
2022-09-20T12:01:01.297Z,41.00
2022-09-20T12:03:28.083Z,41.39
2022-09-20T12:05:55.500Z,41.13
2022-09-20T12:08:22.245Z,40.86
2022-09-20T12:10:51.033Z,40.93
2022-09-20T12:13:18.239Z,44.86
2022-09-20T12:15:45.048Z,47.91
2022-09-20T12:18:12.328Z,47.14
2022-09-20T12:20:39.119Z,43.46
2022-09-20T12:23:06.868Z,42.07
2022-09-20T12:25:33.612Z,41.67
2022-09-20T12:28:00.651Z,41.29
2022-09-20T12:30:28.792Z,41.32
2022-09-20T12:32:56.343Z,41.14
2022-09-20T12:35:23.178Z,40.69
2022-09-20T12:37:49.923Z,40.65
2022-09-20T12:40:16.728Z,41.38
2022-09-20T12:42:43.733Z,46.79
2022-09-20T12:45:10.469Z,48.16
2022-09-20T12:47:37.257Z,44.92
2022-09-20T12:50:22.668Z,42.61
2022-09-20T12:53:04.123Z,42.04
2022-09-20T12:55:30.969Z,41.88
2022-09-20T12:58:03.872Z,41.06
2022-09-20T13:00:32.018Z,40.46
2022-09-20T13:02:58.981Z,40.99
2022-09-20T13:05:25.730Z,40.65
2022-09-20T13:07:52.501Z,40.91
2022-09-20T13:10:20.270Z,40.62
2022-09-20T13:12:50.383Z,45.53
2022-09-20T13:15:19.488Z,47.68
2022-09-20T13:17:46.241Z,45.67
2022-09-20T13:20:12.992Z,42.78
2022-09-20T13:22:43.471Z,41.53
2022-09-20T13:25:11.220Z,41.39
2022-09-20T13:27:37.961Z,40.77
2022-09-20T13:30:04.786Z,40.69
2022-09-20T13:32:31.641Z,40.41
2022-09-20T13:34:58.403Z,40.70
2022-09-20T13:37:25.202Z,41.40
2022-09-20T13:39:51.950Z,46.27
2022-09-20T13:42:19.635Z,48.37
2022-09-20T13:44:46.528Z,44.69
2022-09-20T13:47:13.299Z,42.58
2022-09-20T13:49:40.187Z,41.48
2022-09-20T13:52:06.946Z,41.27
2022-09-20T13:54:33.733Z,40.92
2022-09-20T13:57:00.485Z,40.79
2022-09-20T13:59:27.274Z,40.71
2022-09-20T14:01:54.357Z,40.30
2022-09-20T14:04:21.478Z,40.43
2022-09-20T14:06:48.272Z,41.74
2022-09-20T14:09:15.031Z,47.07
2022-09-20T14:11:41.781Z,48.13
2022-09-20T14:14:08.918Z,43.87
2022-09-20T14:16:35.842Z,42.23
2022-09-20T14:19:02.605Z,41.04
2022-09-20T14:21:29.423Z,41.22
2022-09-20T14:23:58.049Z,40.72
2022-09-20T14:26:25.566Z,40.62
2022-09-20T14:28:52.332Z,40.72
2022-09-20T14:31:19.110Z,40.09
2022-09-20T14:33:45.912Z,40.43
2022-09-20T14:36:12.694Z,40.38
2022-09-20T14:38:39.464Z,45.78
2022-09-20T14:41:06.206Z,48.05
2022-09-20T14:43:33.726Z,44.98
2022-09-20T14:46:01.635Z,42.38
2022-09-20T14:48:28.419Z,41.12
2022-09-20T14:50:55.196Z,40.90
2022-09-20T14:53:22.029Z,40.61
2022-09-20T14:55:48.779Z,40.40
2022-09-20T14:58:15.571Z,40.45
2022-09-20T15:00:42.344Z,40.41
2022-09-20T15:03:09.143Z,40.34
2022-09-20T15:05:35.995Z,42.87
2022-09-20T15:08:02.738Z,47.35
2022-09-20T15:10:30.357Z,48.14
2022-09-20T15:12:57.409Z,43.50
2022-09-20T15:15:24.151Z,41.74
2022-09-20T15:17:50.904Z,41.30
2022-09-20T15:20:23.184Z,41.11
2022-09-20T15:22:50.875Z,40.69
2022-09-20T15:25:17.679Z,40.75
2022-09-20T15:27:46.224Z,40.30
2022-09-20T15:30:12.991Z,40.38
2022-09-20T15:32:39.727Z,40.56
2022-09-20T15:35:06.483Z,41.16
2022-09-20T15:37:33.427Z,46.22
2022-09-20T15:40:00.272Z,47.78
2022-09-20T15:42:27.090Z,44.62
2022-09-20T15:44:53.877Z,42.19
2022-09-20T15:47:21.993Z,41.60
2022-09-20T15:49:49.108Z,41.12
2022-09-20T15:52:15.991Z,40.90
2022-09-20T15:54:43.285Z,41.08
2022-09-20T15:57:10.056Z,40.75
2022-09-20T15:59:36.988Z,40.06
2022-09-20T16:02:03.765Z,40.00
2022-09-20T16:04:31.153Z,45.15
2022-09-20T16:06:57.990Z,47.52
2022-09-20T16:09:24.783Z,45.08
2022-09-20T16:11:51.581Z,42.67
2022-09-20T16:14:18.319Z,41.44
2022-09-20T16:16:45.219Z,41.01
2022-09-20T16:19:19.559Z,40.73
2022-09-20T16:21:55.031Z,40.58
2022-09-20T16:24:24.055Z,40.35
2022-09-20T16:26:50.857Z,40.42
2022-09-20T16:29:17.994Z,39.98
2022-09-20T16:31:47.202Z,40.48
2022-09-20T16:34:14.027Z,40.49
2022-09-20T16:36:44.241Z,44.69
2022-09-20T16:39:11.027Z,47.69
2022-09-20T16:41:39.009Z,45.37
2022-09-20T16:44:05.823Z,42.66
2022-09-20T16:46:33.419Z,41.49
2022-09-20T16:49:00.966Z,41.00
2022-09-20T16:51:27.773Z,40.59
2022-09-20T16:53:55.511Z,40.12
2022-09-20T16:56:22.259Z,40.41
2022-09-20T16:58:49.066Z,40.24
2022-09-20T17:01:16.867Z,40.13
2022-09-20T17:03:44.620Z,40.16
2022-09-20T17:06:11.352Z,43.17
2022-09-20T17:08:40.928Z,43.53
2022-09-20T17:11:08.287Z,44.53
2022-09-20T17:13:35.045Z,45.86
2022-09-20T17:16:01.904Z,43.54
2022-09-20T17:18:28.722Z,41.90
2022-09-20T17:20:55.464Z,41.29
2022-09-20T17:23:23.570Z,41.35
2022-09-20T17:25:54.684Z,40.49
2022-09-20T17:28:21.448Z,40.91
2022-09-20T17:30:48.203Z,40.45
2022-09-20T17:33:15.368Z,40.24
2022-09-20T17:35:42.143Z,40.35
2022-09-20T17:38:08.912Z,41.60
2022-09-20T17:40:35.770Z,43.82
2022-09-20T17:43:03.200Z,43.25
2022-09-20T17:45:29.975Z,45.45
2022-09-20T17:47:57.448Z,44.47
2022-09-20T17:50:24.201Z,42.14
2022-09-20T17:52:51.020Z,41.83
2022-09-20T17:55:17.778Z,41.15
2022-09-20T17:57:44.557Z,41.02
2022-09-20T18:00:11.348Z,40.37
2022-09-20T18:02:39.143Z,40.21
2022-09-20T18:05:05.895Z,40.13
2022-09-20T18:07:34.248Z,39.56
2022-09-20T18:10:00.988Z,39.92
2022-09-20T18:12:27.780Z,39.83
2022-09-20T18:14:56.812Z,40.77
2022-09-20T18:17:23.573Z,43.54
2022-09-20T18:19:50.318Z,42.20
2022-09-20T18:22:17.090Z,45.46
2022-09-20T18:24:43.832Z,44.73
2022-09-20T18:27:10.575Z,42.29
2022-09-20T18:29:37.473Z,41.77
2022-09-20T18:32:04.304Z,40.86
2022-09-20T18:34:31.068Z,40.63
2022-09-20T18:36:57.935Z,40.38
2022-09-20T18:39:24.962Z,40.36
2022-09-20T18:41:52.853Z,40.39
2022-09-20T18:44:19.625Z,39.96
2022-09-20T18:46:46.444Z,40.22
2022-09-20T18:49:14.802Z,39.79
2022-09-20T18:51:41.845Z,40.01
2022-09-20T18:54:11.483Z,43.22
2022-09-20T18:56:38.287Z,42.91
2022-09-20T18:59:06.115Z,44.97
2022-09-20T19:01:32.954Z,45.30
2022-09-20T19:03:59.933Z,43.25
2022-09-20T19:06:26.696Z,41.88
2022-09-20T19:08:53.576Z,41.00
2022-09-20T19:11:20.728Z,40.75
2022-09-20T19:13:47.517Z,40.86
2022-09-20T19:16:14.296Z,40.76
2022-09-20T19:18:41.072Z,40.39
2022-09-20T19:21:07.847Z,40.08
2022-09-20T19:23:34.622Z,39.98
2022-09-20T19:26:01.379Z,39.42
2022-09-20T19:28:28.143Z,39.91
2022-09-20T19:30:55.213Z,43.48
2022-09-20T19:33:21.971Z,42.85
2022-09-20T19:35:49.746Z,45.35
2022-09-20T19:38:17.636Z,44.30
2022-09-20T19:40:44.732Z,42.53
2022-09-20T19:43:13.231Z,41.32
2022-09-20T19:45:40.437Z,40.74
2022-09-20T19:48:07.190Z,40.44
2022-09-20T19:50:33.945Z,40.50
2022-09-20T19:53:03.915Z,40.10
2022-09-20T19:55:30.648Z,40.17
2022-09-20T19:57:57.593Z,39.89
2022-09-20T20:00:24.375Z,39.96
2022-09-20T20:02:51.219Z,39.35
2022-09-20T20:05:18.504Z,39.61
2022-09-20T20:07:46.256Z,40.97
2022-09-20T20:10:13.035Z,42.93
2022-09-20T20:12:39.808Z,42.82
2022-09-20T20:15:06.553Z,48.03
2022-09-20T20:17:33.319Z,44.23
2022-09-20T20:20:00.626Z,42.02
2022-09-20T20:22:29.163Z,41.23
2022-09-20T20:24:56.598Z,40.78
2022-09-20T20:27:23.421Z,40.60
2022-09-20T20:29:52.103Z,40.54
2022-09-20T20:32:18.905Z,40.37
2022-09-20T20:34:46.793Z,39.67
2022-09-20T20:37:14.049Z,39.95
2022-09-20T20:39:40.801Z,39.66
2022-09-20T20:42:09.924Z,39.16
2022-09-20T20:44:36.752Z,39.65
2022-09-20T20:47:03.498Z,39.03
2022-09-20T20:49:30.323Z,43.01
2022-09-20T20:51:58.428Z,42.79
2022-09-20T20:54:25.284Z,44.85
2022-09-20T20:56:52.049Z,44.73
2022-09-20T20:59:18.784Z,42.60
2022-09-20T21:01:45.843Z,41.30
2022-09-20T21:04:12.739Z,40.92
2022-09-20T21:06:42.592Z,40.08
2022-09-20T21:09:09.335Z,40.22
2022-09-20T21:11:36.106Z,39.94
2022-09-20T21:14:02.994Z,39.75
2022-09-20T21:16:29.800Z,39.44
2022-09-20T21:18:56.602Z,39.13
2022-09-20T21:21:23.400Z,39.58
2022-09-20T21:23:50.149Z,39.74
2022-09-20T21:26:16.975Z,39.25
2022-09-20T21:28:44.165Z,42.20
2022-09-20T21:31:10.991Z,42.84
2022-09-20T21:33:37.837Z,46.64
2022-09-20T21:36:04.580Z,46.15
2022-09-20T21:38:34.518Z,42.52
2022-09-20T21:41:02.576Z,41.40
2022-09-20T21:43:29.317Z,40.53
2022-09-20T21:45:58.258Z,40.36
2022-09-20T21:48:25.485Z,39.88
2022-09-20T21:50:52.352Z,40.22
2022-09-20T21:53:19.176Z,39.79
2022-09-20T21:55:46.010Z,39.64
2022-09-20T21:58:12.796Z,39.97
2022-09-20T22:00:39.544Z,39.59
2022-09-20T22:03:06.931Z,39.43
2022-09-20T22:05:34.220Z,38.88
2022-09-20T22:08:00.978Z,39.31
2022-09-20T22:10:27.833Z,39.43
2022-09-20T22:12:54.583Z,42.94
2022-09-20T22:15:21.332Z,42.46
2022-09-20T22:17:48.288Z,47.64
2022-09-20T22:20:15.069Z,44.59
2022-09-20T22:22:41.813Z,42.34
2022-09-20T22:25:08.629Z,40.91
2022-09-20T22:27:35.437Z,40.62
2022-09-20T22:30:05.019Z,39.77
2022-09-20T22:32:31.991Z,39.98
2022-09-20T22:34:59.868Z,39.67
2022-09-20T22:37:26.738Z,39.32
2022-09-20T22:39:53.528Z,39.22
2022-09-20T22:42:20.282Z,39.47
2022-09-20T22:44:47.044Z,39.36
2022-09-20T22:47:13.941Z,39.11
2022-09-20T22:49:40.693Z,39.21
2022-09-20T22:52:07.579Z,42.63
2022-09-20T22:54:35.486Z,42.60
2022-09-20T22:57:02.305Z,46.72
2022-09-20T22:59:29.052Z,45.33
2022-09-20T23:01:55.800Z,42.50
2022-09-20T23:04:23.342Z,41.10
2022-09-20T23:06:54.389Z,40.40
2022-09-20T23:09:21.156Z,40.25
2022-09-20T23:11:47.904Z,39.94
2022-09-20T23:14:14.676Z,39.88
2022-09-20T23:16:41.546Z,39.49
2022-09-20T23:19:08.372Z,39.63
2022-09-20T23:21:35.129Z,39.30
2022-09-20T23:24:01.940Z,39.47
2022-09-20T23:26:29.688Z,39.18
2022-09-20T23:28:56.621Z,39.28
2022-09-20T23:31:23.456Z,39.50
2022-09-20T23:33:50.200Z,39.60
2022-09-20T23:36:16.990Z,42.79
2022-09-20T23:38:43.814Z,42.16
2022-09-20T23:41:10.572Z,46.31
2022-09-20T23:43:37.333Z,43.99
2022-09-20T23:46:04.188Z,41.97
2022-09-20T23:48:30.993Z,40.72
2022-09-20T23:50:57.736Z,39.94
2022-09-20T23:53:24.518Z,39.79
2022-09-20T23:55:51.291Z,39.63
2022-09-20T23:58:18.033Z,39.67
